Time;durP1;ratioP1;P1;durP2;ratioP2;P2;SDS_P1;SDS_P2;PMS_P1;PMS_P2;Temp;Humidity;BMP_temperature;BMP_pressure;BME280_temperature;BME280_humidity;BME280_pressure;Samples;Min_cycle;Max_cycle;Signal;HPM_P1;HPM_P2
2022/01/24 00:02:02;;;;;;;5.80;3.17;;;7.10;75.00;;;;;;5133181;28;20395;-59
2022/01/24 00:04:30;;;;;;;9.05;3.22;;;7.10;75.40;;;;;;5126123;28;20357;-60
2022/01/24 00:06:57;;;;;;;4.95;2.72;;;7.00;75.30;;;;;;5132428;28;20031;-59
2022/01/24 00:09:25;;;;;;;3.83;2.10;;;7.00;75.60;;;;;;5134478;27;20043;-59
2022/01/24 00:17:11;;;;;;;6.65;2.90;;;7.00;75.60;;;;;;5125131;27;20035;-59
2022/01/24 00:27:58;;;;;;;7.38;3.28;;;6.70;74.80;;;;;;5134892;27;20104;-59
2022/01/24 00:30:26;;;;;;;3.92;2.45;;;6.60;73.90;;;;;;5135338;27;20031;-59
2022/01/24 00:32:53;;;;;;;5.82;2.38;;;6.70;74.30;;;;;;5135083;27;20088;-59
2022/01/24 00:35:21;;;;;;;3.15;1.70;;;6.50;74.10;;;;;;5111391;28;20043;-59
2022/01/24 00:37:49;;;;;;;3.08;1.80;;;6.50;73.80;;;;;;5129898;27;20491;-59
2022/01/24 00:40:17;;;;;;;4.70;2.00;;;6.40;73.60;;;;;;5136598;27;20528;-59
2022/01/24 00:42:53;;;;;;;3.38;1.60;;;6.40;73.40;;;;;;5136550;27;20088;-59
2022/01/24 00:55:58;;;;;;;3.97;1.83;;;6.30;73.20;;;;;;5118154;27;20046;-59
2022/01/24 00:58:26;;;;;;;5.30;1.98;;;6.30;73.00;;;;;;5129832;27;20457;-59
2022/01/24 01:00:54;;;;;;;4.47;1.77;;;6.20;71.40;;;;;;5130118;27;20554;-59
2022/01/24 01:03:24;;;;;;;2.25;1.67;;;6.10;70.80;;;;;;5130626;27;20105;-59
2022/01/24 01:18:08;;;;;;;7.60;1.80;;;6.10;70.00;;;;;;5128453;27;20063;-59
2022/01/24 01:19:40;;;;;;;3.45;2.13;;;6.20;69.00;;;;;;5115473;27;20053;-59
2022/01/24 01:22:08;;;;;;;2.45;1.85;;;6.20;68.80;;;;;;5135073;27;20107;-59
2022/01/24 01:24:42;;;;;;;3.53;1.92;;;6.10;69.30;;;;;;5116536;27;20540;-59
2022/01/24 01:27:18;;;;;;;3.15;1.70;;;6.10;69.40;;;;;;5135288;27;20050;-59
2022/01/24 01:57:11;;;;;;;3.22;1.50;;;6.10;67.90;;;;;;5118191;27;20103;-59
2022/01/24 01:59:39;;;;;;;3.10;1.63;;;6.10;67.00;;;;;;5133857;27;20100;-59
2022/01/24 02:02:07;;;;;;;1.73;1.20;;;6.00;66.40;;;;;;5099336;27;20054;-59
2022/01/24 02:04:34;;;;;;;2.72;1.30;;;6.00;66.40;;;;;;5133411;27;20551;-59
2022/01/24 02:07:02;;;;;;;2.97;1.45;;;6.00;65.00;;;;;;5134442;27;20047;-59
2022/01/24 02:09:32;;;;;;;3.92;1.63;;;5.90;65.40;;;;;;5126715;27;20076;-59
2022/01/24 02:12:00;;;;;;;2.35;1.40;;;6.00;65.30;;;;;;5135075;27;20071;-59
2022/01/24 02:14:35;;;;;;;3.25;1.80;;;5.90;66.20;;;;;;5127539;27;20042;-59
2022/01/24 02:17:13;;;;;;;3.08;1.50;;;5.90;65.90;;;;;;5134556;27;20039;-59
2022/01/24 02:25:01;;;;;;;3.85;1.48;;;5.80;66.50;;;;;;5133176;27;20396;-59
2022/01/24 02:27:41;;;;;;;3.63;1.33;;;5.70;65.30;;;;;;5134412;27;20035;-60
2022/01/24 02:30:41;;;;;;;5.00;1.58;;;5.70;65.50;;;;;;5125033;27;20043;-59
2022/01/24 02:33:10;;;;;;;5.30;1.48;;;5.70;66.00;;;;;;5120565;27;20093;-59
2022/01/24 02:35:38;;;;;;;4.10;1.30;;;5.70;66.20;;;;;;5132372;27;20053;-59
2022/01/24 02:38:17;;;;;;;5.03;2.03;;;5.70;66.60;;;;;;5133501;27;20043;-59
2022/01/24 02:46:00;;;;;;;4.47;1.80;;;5.70;66.60;;;;;;5122943;27;20058;-59
2022/01/24 02:49:10;;;;;;;7.03;1.83;;;5.40;65.30;;;;;;5135362;27;20550;-59
2022/01/24 02:51:46;;;;;;;3.47;1.83;;;5.50;65.60;;;;;;5135290;27;20088;-59
2022/01/24 02:54:23;;;;;;;3.58;2.50;;;5.40;64.50;;;;;;5135483;27;20397;-59
2022/01/24 02:56:51;;;;;;;4.15;1.77;;;5.50;64.70;;;;;;5117155;27;20092;-59
2022/01/24 02:59:18;;;;;;;3.70;1.95;;;5.50;64.20;;;;;;5135167;27;20043;-58
2022/01/24 03:01:47;;;;;;;4.30;1.55;;;5.40;63.00;;;;;;5135108;27;20047;-59
2022/01/24 03:04:15;;;;;;;3.88;1.65;;;5.50;63.00;;;;;;5135002;27;20035;-59
2022/01/24 03:06:43;;;;;;;3.25;1.52;;;5.50;62.90;;;;;;5134877;27;20047;-59
2022/01/24 03:09:12;;;;;;;2.63;1.95;;;5.50;63.20;;;;;;5116940;27;20054;-59
2022/01/24 03:12:03;;;;;;;3.25;1.42;;;5.50;62.80;;;;;;5135144;27;20043;-59
2022/01/24 03:14:34;;;;;;;6.43;1.98;;;5.40;63.30;;;;;;5135057;27;20082;-59
2022/01/24 03:17:05;;;;;;;2.47;1.40;;;5.40;63.00;;;;;;5135059;27;20563;-59
2022/01/24 03:19:33;;;;;;;3.15;1.55;;;5.50;62.50;;;;;;5134815;27;20046;-59
2022/01/24 03:22:01;;;;;;;2.72;1.50;;;5.50;61.80;;;;;;5134913;27;20039;-59
2022/01/24 03:24:28;;;;;;;6.07;2.90;;;5.50;61.90;;;;;;5134428;27;20042;-59
2022/01/24 03:26:56;;;;;;;3.42;1.77;;;5.50;62.10;;;;;;5116462;27;20481;-59
2022/01/24 03:29:23;;;;;;;2.83;1.85;;;5.50;61.80;;;;;;5134706;27;20084;-59
2022/01/24 03:31:51;;;;;;;6.93;1.60;;;5.50;61.70;;;;;;5134737;27;20122;-59
2022/01/24 03:34:18;;;;;;;4.82;2.58;;;5.50;61.60;;;;;;5115963;27;20053;-59
2022/01/24 03:36:46;;;;;;;5.45;1.85;;;5.50;61.60;;;;;;5116650;27;20091;-59
2022/01/24 03:39:13;;;;;;;2.45;1.65;;;5.50;61.40;;;;;;5116315;27;20058;-59
2022/01/24 03:41:41;;;;;;;3.88;1.58;;;5.50;61.80;;;;;;5134469;27;20043;-59
2022/01/24 03:44:11;;;;;;;3.00;2.00;;;5.50;61.60;;;;;;5134241;27;20051;-59
2022/01/24 03:49:45;;;;;;;2.00;1.20;;;5.50;62.10;;;;;;5134617;28;20126;-59
2022/01/24 03:52:15;;;;;;;1.88;1.35;;;5.60;63.10;;;;;;5134687;28;20430;-59
2022/01/24 03:54:43;;;;;;;5.88;2.20;;;5.50;62.60;;;;;;5134441;28;20101;-59
2022/01/24 03:57:13;;;;;;;3.40;1.83;;;5.40;62.40;;;;;;5116330;28;20035;-59
2022/01/24 03:59:41;;;;;;;2.58;1.80;;;5.50;62.70;;;;;;5134398;28;20035;-59
2022/01/24 04:02:09;;;;;;;3.47;2.28;;;5.50;62.90;;;;;;5134315;28;20036;-59
2022/01/24 04:04:37;;;;;;;3.53;2.00;;;5.60;63.00;;;;;;5134247;28;20063;-59
2022/01/24 04:07:05;;;;;;;2.53;1.48;;;5.60;63.10;;;;;;5134398;28;20067;-59
2022/01/24 04:09:34;;;;;;;2.95;1.80;;;5.50;63.10;;;;;;5116025;28;20397;-59
2022/01/24 04:12:02;;;;;;;4.25;1.88;;;5.50;63.10;;;;;;5134146;28;20489;-59
2022/01/24 04:22:14;;;;;;;3.75;2.15;;;5.40;64.30;;;;;;5134376;28;20043;-59
2022/01/24 04:24:43;;;;;;;3.60;1.55;;;5.30;63.70;;;;;;5134017;28;20121;-59
2022/01/24 04:27:13;;;;;;;4.50;2.05;;;5.40;63.90;;;;;;5134532;28;20043;-59
2022/01/24 04:29:42;;;;;;;2.95;1.55;;;5.40;64.50;;;;;;5099119;28;20473;-59
2022/01/24 04:32:10;;;;;;;4.55;2.28;;;5.40;64.90;;;;;;5134223;28;20130;-59
2022/01/24 04:34:38;;;;;;;4.95;1.83;;;5.40;65.00;;;;;;5134333;28;20050;-59
2022/01/24 04:37:05;;;;;;;3.15;1.80;;;5.50;64.70;;;;;;5133924;28;20077;-59
2022/01/24 04:39:33;;;;;;;4.30;2.03;;;5.50;63.40;;;;;;5133753;28;20489;-58
2022/01/24 04:42:08;;;;;;;4.20;2.30;;;5.50;63.40;;;;;;5115845;28;20043;-58
2022/01/24 04:47:25;;;;;;;4.45;2.25;;;5.30;62.50;;;;;;5133633;28;20058;-58
2022/01/24 04:52:54;;;;;;;4.45;2.47;;;5.30;62.90;;;;;;5133865;28;20039;-58
2022/01/24 04:55:22;;;;;;;3.95;1.80;;;5.30;63.50;;;;;;5135815;27;20447;-58
2022/01/24 04:57:50;;;;;;;3.40;1.95;;;5.30;63.70;;;;;;5119461;27;20481;-58
2022/01/24 05:00:18;;;;;;;2.85;1.52;;;5.20;63.90;;;;;;5137129;27;20439;-58
2022/01/24 05:02:45;;;;;;;4.00;2.58;;;5.30;64.00;;;;;;5137407;27;20043;-58
2022/01/24 05:05:17;;;;;;;2.67;1.98;;;5.20;63.90;;;;;;5137336;27;20055;-59
2022/01/24 05:07:45;;;;;;;3.97;1.67;;;5.30;64.00;;;;;;5137293;27;20047;-58
2022/01/24 05:23:39;;;;;;;2.70;1.63;;;5.30;63.70;;;;;;5137038;27;20421;-59
2022/01/24 05:26:08;;;;;;;5.57;2.07;;;5.30;64.10;;;;;;5119106;27;20051;-59
2022/01/24 05:28:36;;;;;;;3.15;1.63;;;5.30;63.90;;;;;;5136850;27;20134;-59
2022/01/24 05:31:04;;;;;;;4.35;2.17;;;5.30;63.60;;;;;;5137102;27;20043;-59
2022/01/24 05:33:32;;;;;;;5.32;1.98;;;5.20;62.90;;;;;;5136834;27;20035;-59
2022/01/24 05:36:00;;;;;;;2.42;1.88;;;5.20;62.80;;;;;;5136699;27;20039;-59
2022/01/24 05:38:28;;;;;;;3.72;2.17;;;5.10;63.40;;;;;;5118761;27;20430;-59
2022/01/24 05:40:57;;;;;;;2.97;1.60;;;5.10;63.50;;;;;;5118351;27;20378;-59
2022/01/24 05:43:25;;;;;;;4.07;2.05;;;5.20;63.80;;;;;;5118493;27;20032;-58
2022/01/24 05:45:52;;;;;;;3.25;1.75;;;5.20;64.00;;;;;;5136623;27;20039;-58
2022/01/24 05:48:20;;;;;;;5.80;2.08;;;5.20;64.00;;;;;;5136510;27;20101;-58
2022/01/24 05:50:47;;;;;;;3.15;1.90;;;5.20;64.70;;;;;;5136399;27;20125;-59
2022/01/24 05:53:15;;;;;;;2.03;1.33;;;5.20;64.80;;;;;;5136849;27;20046;-58
2022/01/24 05:55:43;;;;;;;2.75;1.63;;;5.20;64.90;;;;;;5136299;27;20393;-58
2022/01/24 05:58:10;;;;;;;4.57;2.63;;;5.20;65.00;;;;;;5118294;27;20054;-58
2022/01/24 06:00:38;;;;;;;2.60;1.52;;;5.30;65.20;;;;;;5136488;27;20050;-58
2022/01/24 06:03:06;;;;;;;4.00;1.85;;;5.30;65.50;;;;;;5136340;27;20036;-58
2022/01/24 06:05:33;;;;;;;2.25;1.63;;;5.30;65.80;;;;;;5135841;27;20385;-58
2022/01/24 06:08:00;;;;;;;3.65;1.67;;;5.20;65.60;;;;;;5136256;27;20130;-58
2022/01/24 06:10:29;;;;;;;3.67;1.80;;;5.20;65.60;;;;;;5136056;27;20039;-59
2022/01/24 06:12:57;;;;;;;3.38;2.40;;;5.30;65.90;;;;;;5136406;27;20043;-59
2022/01/24 06:15:25;;;;;;;3.03;1.75;;;5.40;66.10;;;;;;5136179;27;20043;-59
2022/01/24 06:17:52;;;;;;;5.85;2.20;;;5.50;66.10;;;;;;5135808;27;20457;-59
2022/01/24 06:20:20;;;;;;;7.97;2.15;;;5.50;65.70;;;;;;5135905;27;20047;-59
2022/01/24 06:22:47;;;;;;;3.92;1.73;;;5.70;65.70;;;;;;5135834;27;20047;-59
2022/01/24 06:25:20;;;;;;;2.70;1.90;;;5.90;65.50;;;;;;5135961;27;20035;-59
2022/01/24 06:27:48;;;;;;;7.20;2.03;;;6.30;65.00;;;;;;5135531;27;20058;-59
2022/01/24 06:30:16;;;;;;;3.47;2.20;;;6.90;64.40;;;;;;5135691;27;20035;-59
2022/01/24 06:32:44;;;;;;;4.20;2.30;;;7.40;63.30;;;;;;5135698;27;20129;-59
2022/01/24 06:35:13;;;;;;;5.40;2.03;;;7.90;62.90;;;;;;5135951;27;20039;-59
2022/01/24 06:37:41;;;;;;;6.85;2.63;;;8.40;62.50;;;;;;5135364;27;20092;-59
2022/01/24 06:40:10;;;;;;;5.05;2.13;;;8.70;62.00;;;;;;5135534;27;20397;-59
2022/01/24 06:42:38;;;;;;;7.10;2.10;;;9.10;61.80;;;;;;5117096;27;20060;-59
2022/01/24 06:45:07;;;;;;;5.78;2.00;;;9.30;61.80;;;;;;5135398;27;20043;-59
2022/01/24 06:47:35;;;;;;;4.35;1.83;;;9.10;62.00;;;;;;5135669;27;20105;-59
2022/01/24 06:50:05;;;;;;;7.13;2.50;;;8.70;62.60;;;;;;5117252;27;20076;-59
2022/01/24 06:52:32;;;;;;;3.30;1.80;;;8.60;63.30;;;;;;5117025;27;20039;-59
2022/01/24 06:55:00;;;;;;;4.85;2.55;;;8.30;63.90;;;;;;5135133;27;20043;-59
2022/01/24 06:57:28;;;;;;;3.58;1.63;;;7.80;64.80;;;;;;5135174;27;20166;-59
2022/01/24 06:59:55;;;;;;;4.15;1.90;;;7.40;65.70;;;;;;5135109;27;20035;-59
2022/01/24 07:02:23;;;;;;;5.32;2.15;;;7.20;66.50;;;;;;5116889;27;20040;-59
2022/01/24 07:04:51;;;;;;;4.43;2.00;;;7.00;67.10;;;;;;5134987;27;20043;-59
2022/01/24 07:07:19;;;;;;;4.00;2.15;;;6.70;67.70;;;;;;5116739;27;20043;-59
2022/01/24 07:09:47;;;;;;;10.50;2.35;;;6.70;68.10;;;;;;5134972;27;20050;-59
2022/01/24 07:12:15;;;;;;;3.13;2.25;;;6.50;68.30;;;;;;5134840;27;20362;-59
2022/01/24 07:14:43;;;;;;;3.22;2.30;;;6.50;68.70;;;;;;5116587;27;20042;-59
2022/01/24 07:19:39;;;;;;;4.63;2.10;;;6.40;69.40;;;;;;5135063;27;20035;-59
2022/01/24 07:22:06;;;;;;;2.42;1.58;;;6.60;69.40;;;;;;5134802;27;20035;-59
2022/01/24 07:24:35;;;;;;;5.50;2.03;;;6.80;69.10;;;;;;5134668;27;20493;-59
2022/01/24 07:27:04;;;;;;;3.47;2.47;;;6.70;68.50;;;;;;5134746;27;20074;-59
2022/01/24 07:29:32;;;;;;;5.45;1.85;;;6.60;68.80;;;;;;5134675;27;20063;-58
2022/01/24 07:32:00;;;;;;;2.58;1.73;;;6.60;69.00;;;;;;5134934;27;20071;-58
2022/01/24 07:34:28;;;;;;;4.90;1.92;;;6.50;68.90;;;;;;5134954;27;20489;-58
2022/01/24 07:36:55;;;;;;;4.43;1.80;;;6.50;68.70;;;;;;5116624;27;20047;-58
2022/01/24 07:39:23;;;;;;;3.67;2.28;;;6.40;68.50;;;;;;5134634;27;20072;-58
2022/01/24 07:41:52;;;;;;;3.92;1.77;;;6.40;68.50;;;;;;5134427;27;20039;-58
2022/01/24 07:44:21;;;;;;;3.50;2.28;;;6.40;69.00;;;;;;5116396;28;20042;-58
2022/01/24 07:46:49;;;;;;;7.72;2.42;;;6.60;68.60;;;;;;5134349;27;20047;-58
2022/01/24 07:49:16;;;;;;;3.55;2.20;;;6.70;68.30;;;;;;5134132;27;20047;-58
2022/01/24 07:51:44;;;;;;;11.43;2.47;;;6.70;67.50;;;;;;5134502;28;20047;-58
2022/01/24 07:54:12;;;;;;;9.00;2.58;;;6.80;68.10;;;;;;5134448;28;20043;-58
2022/01/24 07:56:39;;;;;;;8.93;2.22;;;6.70;68.50;;;;;;5116151;28;20046;-59
2022/01/24 07:59:07;;;;;;;3.63;1.60;;;6.70;68.90;;;;;;5134368;28;20043;-59
2022/01/24 08:01:35;;;;;;;11.75;2.88;;;6.70;68.90;;;;;;5134329;28;20050;-59
2022/01/24 08:04:03;;;;;;;3.20;1.95;;;6.60;69.40;;;;;;5134213;28;20047;-59
2022/01/24 08:06:31;;;;;;;7.18;2.10;;;7.00;69.40;;;;;;5134357;28;20081;-59
2022/01/24 08:08:59;;;;;;;3.17;1.88;;;7.60;68.20;;;;;;5134133;28;20400;-59
2022/01/24 08:11:27;;;;;;;3.80;1.90;;;8.50;67.20;;;;;;5134000;28;20040;-59
2022/01/24 08:13:55;;;;;;;3.50;1.98;;;9.20;65.80;;;;;;5115898;28;20520;-59
2022/01/24 08:16:23;;;;;;;2.85;2.03;;;9.70;64.90;;;;;;5134185;28;20039;-59
2022/01/24 08:18:52;;;;;;;4.25;1.70;;;9.80;63.70;;;;;;5134119;28;20130;-59
2022/01/24 08:21:20;;;;;;;8.57;3.15;;;9.50;63.50;;;;;;5134183;28;20035;-59
2022/01/24 08:23:48;;;;;;;4.93;2.20;;;9.60;64.00;;;;;;5133817;28;20039;-59
2022/01/24 08:26:17;;;;;;;5.93;2.55;;;9.70;65.00;;;;;;5114874;28;20047;-59
2022/01/24 08:28:45;;;;;;;5.93;1.92;;;10.00;64.10;;;;;;5133682;27;20043;-59
2022/01/24 08:31:14;;;;;;;14.25;2.58;;;9.70;63.30;;;;;;5119196;27;20082;-59
2022/01/24 08:33:43;;;;;;;4.30;2.28;;;9.40;63.60;;;;;;5137822;27;20078;-59
2022/01/24 08:36:11;;;;;;;4.10;3.13;;;9.20;64.30;;;;;;5137789;27;20409;-59
2022/01/24 08:38:38;;;;;;;4.28;2.40;;;8.70;65.20;;;;;;5137779;27;20062;-59
2022/01/24 08:41:14;;;;;;;5.05;2.10;;;8.30;66.00;;;;;;5137981;27;20423;-59
2022/01/24 08:46:17;;;;;;;6.07;2.90;;;7.70;67.20;;;;;;5137897;27;20050;-59
2022/01/24 08:48:46;;;;;;;3.28;2.05;;;7.40;68.00;;;;;;5137806;27;20035;-59
2022/01/24 08:51:16;;;;;;;6.85;2.53;;;7.30;68.70;;;;;;5137979;27;20047;-59
2022/01/24 08:53:55;;;;;;;5.00;2.88;;;7.10;69.00;;;;;;5119472;27;20039;-59
2022/01/24 08:56:25;;;;;;;4.20;2.33;;;7.00;69.40;;;;;;5119619;27;20485;-58
2022/01/24 08:58:52;;;;;;;5.75;2.75;;;6.90;69.40;;;;;;5137660;27;20043;-59
2022/01/24 09:01:20;;;;;;;4.78;3.40;;;6.90;69.40;;;;;;5137582;27;20035;-59
2022/01/24 09:03:48;;;;;;;3.70;2.35;;;6.90;70.00;;;;;;5137712;27;20605;-59
2022/01/24 09:06:18;;;;;;;4.63;2.45;;;6.80;70.20;;;;;;5119247;27;20046;-59
2022/01/24 09:08:45;;;;;;;4.85;2.92;;;6.70;70.70;;;;;;5137359;27;20047;-59
2022/01/24 09:11:13;;;;;;;5.18;2.40;;;6.70;71.00;;;;;;5137321;27;20066;-59
2022/01/24 09:13:42;;;;;;;6.03;2.58;;;6.70;71.30;;;;;;5137306;27;20043;-59
2022/01/24 09:16:10;;;;;;;5.38;2.80;;;6.90;71.40;;;;;;5137174;27;20031;-58
2022/01/24 09:18:37;;;;;;;5.07;2.40;;;7.10;70.20;;;;;;5137388;27;20063;-59
2022/01/24 09:21:05;;;;;;;3.58;1.85;;;7.30;69.30;;;;;;5137028;27;20042;-59
2022/01/24 09:23:32;;;;;;;6.07;2.20;;;7.40;68.70;;;;;;5137055;27;20043;-59
2022/01/24 09:26:00;;;;;;;4.57;2.50;;;7.60;68.50;;;;;;5137243;27;20085;-59
2022/01/24 09:28:28;;;;;;;4.78;2.30;;;7.70;68.00;;;;;;5137008;27;20053;-59
2022/01/24 09:30:57;;;;;;;5.78;2.47;;;7.50;68.30;;;;;;5137178;27;20481;-59
2022/01/24 09:33:26;;;;;;;4.25;2.60;;;7.50;68.70;;;;;;5136972;27;20047;-59
2022/01/24 09:35:59;;;;;;;3.47;2.00;;;7.30;68.60;;;;;;5136995;27;20031;-59
2022/01/24 09:38:29;;;;;;;4.45;2.20;;;7.20;69.00;;;;;;5137117;27;20036;-59
2022/01/24 09:41:03;;;;;;;4.20;2.42;;;7.00;69.10;;;;;;5136532;27;20057;-59
2022/01/24 09:43:32;;;;;;;4.65;2.70;;;6.90;69.60;;;;;;5136844;27;20047;-59
2022/01/24 09:46:01;;;;;;;4.97;2.15;;;6.90;70.80;;;;;;5136728;27;20035;-59
2022/01/24 09:48:29;;;;;;;5.75;2.78;;;6.90;72.60;;;;;;5136837;27;20050;-59
2022/01/24 09:50:56;;;;;;;4.47;2.58;;;6.80;72.00;;;;;;5136635;27;20047;-59
2022/01/24 09:53:26;;;;;;;5.93;2.65;;;6.70;70.90;;;;;;5135603;27;20450;-59
2022/01/24 09:55:55;;;;;;;4.95;2.65;;;6.60;71.30;;;;;;5122157;27;20046;-59
2022/01/24 09:58:22;;;;;;;6.22;2.60;;;6.40;79.80;;;;;;5134444;27;20035;-59
2022/01/24 10:00:50;;;;;;;4.90;2.67;;;6.20;84.30;;;;;;5133788;27;20090;-59
2022/01/24 10:03:18;;;;;;;3.05;1.90;;;6.10;84.70;;;;;;5135488;27;20043;-59
2022/01/24 10:05:58;;;;;;;4.85;2.50;;;6.00;85.70;;;;;;5122980;27;20038;-58
2022/01/24 10:08:30;;;;;;;4.22;2.83;;;6.00;85.70;;;;;;5134995;27;20030;-59
2022/01/24 10:11:01;;;;;;;7.43;3.08;;;6.00;89.50;;;;;;5126835;27;20053;-59
2022/01/24 10:16:29;;;;;;;4.70;3.10;;;6.20;87.00;;;;;;5134271;27;20504;-60
2022/01/24 10:19:19;;;;;;;23.48;6.07;;;6.10;88.00;;;;;;5131122;27;20040;-60
2022/01/24 10:22:04;;;;;;;6.35;3.47;;;6.50;90.20;;;;;;5125276;27;20046;-61
2022/01/24 10:24:48;;;;;;;13.38;4.50;;;7.00;88.40;;;;;;5125600;27;20059;-61
2022/01/24 10:27:23;;;;;;;8.48;3.13;;;7.40;88.60;;;;;;5122326;27;20043;-61
2022/01/24 10:30:03;;;;;;;9.23;4.05;;;7.60;86.70;;;;;;5133155;27;20043;-61
2022/01/24 10:32:40;;;;;;;7.88;3.10;;;8.00;88.90;;;;;;5134032;27;20066;-62
2022/01/24 10:35:26;;;;;;;7.10;3.03;;;8.50;84.60;;;;;;5128828;27;20042;-62
2022/01/24 10:38:14;;;;;;;5.30;2.90;;;9.10;85.20;;;;;;5120847;27;20047;-62
2022/01/24 10:43:27;;;;;;;;;;;9.60;83.20;;;;;;5134882;27;20043;-62
2022/01/24 10:45:57;;;;;;;5.10;2.93;;;9.60;82.70;;;;;;5132562;27;20293;-60
2022/01/24 10:48:36;;;;;;;4.70;2.90;;;9.40;81.90;;;;;;5121111;27;20043;-63
2022/01/24 10:51:20;;;;;;;4.00;2.25;;;8.80;80.80;;;;;;5074586;28;20054;-64
2022/01/24 10:53:57;;;;;;;7.13;3.40;;;8.50;85.20;;;;;;5080048;28;20047;-64
2022/01/24 10:56:29;;;;;;;;;;;8.10;82.80;;;;;;5123318;27;20385;-64
2022/01/24 10:59:14;;;;;;;4.90;3.50;;;7.40;83.10;;;;;;5096193;28;20471;-63
2022/01/24 11:01:45;;;;;;;7.65;3.85;;;7.20;85.20;;;;;;5114867;28;20059;-62
2022/01/24 11:04:14;;;;;;;6.90;3.80;;;6.90;90.00;;;;;;5114629;28;20050;-64
2022/01/24 11:06:57;;;;;;;6.65;4.20;;;6.70;89.40;;;;;;5096585;28;20490;-64
2022/01/24 11:09:36;;;;;;;7.15;3.28;;;6.60;89.70;;;;;;5114643;28;20044;-64
2022/01/24 11:12:12;;;;;;;4.65;3.35;;;6.50;89.70;;;;;;5079868;28;20072;-64
2022/01/24 11:14:45;;;;;;;4.18;3.33;;;6.50;88.80;;;;;;5098324;27;20043;-64
2022/01/24 11:17:19;;;;;;;7.25;3.78;;;6.40;89.60;;;;;;5121336;27;20485;-64
2022/01/24 11:19:56;;;;;;;5.68;3.33;;;6.40;89.60;;;;;;5121920;27;20438;-64
2022/01/24 11:22:27;;;;;;;8.05;5.43;;;6.40;91.20;;;;;;5111373;27;20043;-64
2022/01/24 11:25:00;;;;;;;11.55;7.22;;;6.40;87.60;;;;;;5126930;27;20044;-64
2022/01/24 11:27:41;;;;;;;10.27;7.85;;;6.50;89.20;;;;;;5095546;28;20088;-64
2022/01/24 11:30:14;;;;;;;12.05;7.50;;;6.50;88.50;;;;;;5099625;27;20044;-64
2022/01/24 11:32:47;;;;;;;7.32;4.22;;;6.50;89.00;;;;;;5122373;27;20077;-64
2022/01/24 11:35:33;;;;;;;8.82;4.85;;;6.50;88.50;;;;;;5119976;27;20118;-63
2022/01/24 11:38:01;;;;;;;5.22;3.50;;;6.30;88.00;;;;;;5125581;27;20486;-64
2022/01/24 11:40:45;;;;;;;8.55;6.57;;;6.20;90.50;;;;;;5108460;27;20075;-64
2022/01/24 11:43:28;;;;;;;13.23;8.18;;;6.10;91.30;;;;;;5111299;27;20447;-64
2022/01/24 11:46:01;;;;;;;9.48;5.75;;;6.00;91.90;;;;;;5104928;28;20050;-63
2022/01/24 11:48:29;;;;;;;8.73;4.60;;;5.90;91.70;;;;;;5120843;27;20051;-63
2022/01/24 11:51:00;;;;;;;5.53;4.00;;;5.90;92.10;;;;;;5101677;28;20105;-63
2022/01/24 11:53:30;;;;;;;7.63;5.15;;;5.90;92.50;;;;;;5105132;28;20040;-63
2022/01/24 11:56:21;;;;;;;4.88;3.13;;;5.80;92.70;;;;;;5116538;28;20066;-64
2022/01/24 11:58:50;;;;;;;6.78;3.25;;;5.90;92.80;;;;;;5125502;28;20054;-64
2022/01/24 12:01:39;;;;;;;4.72;3.33;;;5.90;92.70;;;;;;5118320;28;20039;-65
2022/01/24 12:04:07;;;;;;;6.65;3.97;;;6.00;92.60;;;;;;5080130;28;20066;-65
2022/01/24 12:07:12;;;;;;;12.48;8.63;;;6.10;92.20;;;;;;5097785;28;20122;-65
2022/01/24 12:09:39;;;;;;;12.02;6.00;;;6.10;91.60;;;;;;5097595;28;20044;-65
2022/01/24 12:12:46;;;;;;;6.38;4.05;;;6.10;91.10;;;;;;5097303;28;20094;-65
2022/01/24 12:15:39;;;;;;;7.82;4.35;;;6.00;90.30;;;;;;5097309;28;20487;-65
2022/01/24 12:18:08;;;;;;;6.45;3.90;;;6.00;90.20;;;;;;5062819;28;20498;-65
2022/01/24 12:20:35;;;;;;;6.47;4.18;;;6.10;90.10;;;;;;5096345;28;20040;-65
2022/01/24 12:23:20;;;;;;;6.30;4.22;;;6.10;89.90;;;;;;5097131;28;20044;-65
2022/01/24 12:26:09;;;;;;;6.53;3.80;;;6.30;89.00;;;;;;5079364;28;20044;-65
2022/01/24 12:28:42;;;;;;;5.57;3.45;;;6.50;87.60;;;;;;5079087;28;20143;-65
2022/01/24 12:31:45;;;;;;;4.85;3.58;;;6.50;84.30;;;;;;5096223;27;20062;-65
2022/01/24 12:34:40;;;;;;;8.05;3.85;;;6.50;82.40;;;;;;5119145;27;20042;-64
2022/01/24 12:37:12;;;;;;;5.75;4.00;;;6.50;80.50;;;;;;5115077;27;20038;-63
2022/01/24 12:40:06;;;;;;;6.53;4.75;;;6.50;78.40;;;;;;5122917;27;20389;-64
2022/01/24 12:42:56;;;;;;;7.05;4.78;;;6.40;78.10;;;;;;5106408;27;20440;-64
2022/01/24 12:48:30;;;;;;;7.60;4.70;;;6.40;78.60;;;;;;5125936;27;20046;-64
2022/01/24 12:50:59;;;;;;;12.43;7.82;;;6.30;78.60;;;;;;5124529;27;20042;-64
2022/01/24 12:53:27;;;;;;;9.20;5.43;;;6.30;79.20;;;;;;5114805;27;20042;-64
2022/01/24 12:56:11;;;;;;;9.30;4.53;;;6.30;79.50;;;;;;5102930;27;20040;-64
2022/01/24 12:58:43;;;;;;;5.65;4.15;;;6.20;79.40;;;;;;5127385;27;20543;-64
2022/01/24 13:01:29;;;;;;;5.20;3.00;;;6.20;79.30;;;;;;5102125;27;20130;-65
2022/01/24 13:04:02;;;;;;;4.95;3.13;;;6.20;79.80;;;;;;5113152;27;20038;-65
2022/01/24 13:06:35;;;;;;;6.70;3.83;;;6.10;81.70;;;;;;5116429;27;20432;-65
2022/01/24 13:09:19;;;;;;;6.57;4.43;;;6.30;81.30;;;;;;5093933;27;20039;-65
2022/01/24 13:12:03;;;;;;;6.53;4.43;;;6.20;81.20;;;;;;5121211;27;20042;-65
2022/01/24 13:15:04;;;;;;;5.22;3.28;;;6.30;82.20;;;;;;5089065;28;20402;-64
2022/01/24 13:23:02;;;;;;;7.65;3.97;;;6.10;78.20;;;;;;5096342;28;20056;-65
2022/01/24 13:25:38;;;;;;;10.85;5.68;;;6.10;76.80;;;;;;5077934;28;20051;-64
2022/01/24 13:28:15;;;;;;;6.10;5.13;;;6.10;75.80;;;;;;5095937;28;20040;-64
2022/01/24 13:30:49;;;;;;;6.65;3.10;;;6.10;74.80;;;;;;5095832;28;20047;-64
2022/01/24 13:33:24;;;;;;;3.78;2.65;;;6.00;74.40;;;;;;5039161;27;20697;-63
2022/01/24 13:35:55;;;;;;;5.40;3.53;;;6.00;74.20;;;;;;4797203;28;20035;-63
2022/01/24 13:38:26;;;;;;;6.28;3.90;;;6.00;73.90;;;;;;5104877;28;20028;-65
2022/01/24 13:41:09;;;;;;;6.93;4.22;;;6.00;73.80;;;;;;5086137;27;20058;-65
2022/01/24 13:43:44;;;;;;;7.28;4.00;;;6.00;73.30;;;;;;5106497;27;20047;-63
2022/01/24 13:46:25;;;;;;;9.55;4.35;;;6.00;72.70;;;;;;5118492;27;20051;-63
2022/01/24 13:49:16;;;;;;;8.30;4.70;;;6.10;73.20;;;;;;5133188;27;20092;-63
2022/01/24 13:51:49;;;;;;;6.75;3.25;;;6.10;73.50;;;;;;5130302;27;20065;-64
2022/01/24 13:54:21;;;;;;;6.10;3.95;;;6.20;72.70;;;;;;5090638;27;20043;-64
2022/01/24 13:56:50;;;;;;;6.15;3.63;;;6.20;71.50;;;;;;5105872;27;20038;-64
2022/01/24 13:59:29;;;;;;;7.35;4.63;;;6.20;72.20;;;;;;5137056;27;20035;-64
2022/01/24 14:02:04;;;;;;;8.18;3.65;;;6.30;71.70;;;;;;5119029;27;20039;-64
2022/01/24 14:04:53;;;;;;;5.78;3.28;;;6.30;70.90;;;;;;5122617;27;20374;-65
2022/01/24 14:07:41;;;;;;;6.97;3.10;;;6.30;70.10;;;;;;5139642;27;20489;-64
2022/01/24 14:10:13;;;;;;;6.25;3.45;;;6.20;70.30;;;;;;5138113;27;20042;-65
2022/01/24 14:20:35;;;;;;;6.57;3.30;;;6.20;69.70;;;;;;5136967;27;20396;-64
2022/01/24 14:23:03;;;;;;;7.18;3.72;;;6.20;67.60;;;;;;5137033;27;20036;-64
2022/01/24 14:25:32;;;;;;;8.15;3.80;;;6.10;68.00;;;;;;5122966;27;20409;-64
2022/01/24 14:28:06;;;;;;;6.40;3.50;;;6.00;67.10;;;;;;5138135;27;20047;-64
2022/01/24 14:30:42;;;;;;;4.88;2.83;;;6.00;66.30;;;;;;5122287;27;20043;-64
2022/01/24 14:33:21;;;;;;;5.22;2.75;;;6.00;66.30;;;;;;5131913;27;20043;-64
2022/01/24 14:36:17;;;;;;;4.45;2.78;;;6.10;65.60;;;;;;5098934;27;20059;-63
2022/01/24 14:39:00;;;;;;;6.50;3.50;;;6.10;65.80;;;;;;5110774;28;20044;-63
2022/01/24 14:41:33;;;;;;;9.13;5.20;;;6.10;66.40;;;;;;5132838;27;20096;-65
2022/01/24 14:46:54;;;;;;;6.00;4.30;;;6.20;67.30;;;;;;5133241;27;20043;-62
2022/01/24 14:49:25;;;;;;;4.43;3.50;;;6.00;66.00;;;;;;5114868;27;20046;-65
2022/01/24 14:51:59;;;;;;;7.43;3.90;;;5.90;66.50;;;;;;5115243;27;20051;-65
2022/01/24 14:54:30;;;;;;;6.38;3.80;;;5.90;66.30;;;;;;5132663;27;20043;-66
2022/01/24 14:57:01;;;;;;;6.55;4.18;;;5.90;66.40;;;;;;5114379;27;20402;-65
2022/01/24 14:59:30;;;;;;;6.45;4.65;;;5.90;66.50;;;;;;5126538;27;20043;-63
2022/01/24 15:01:59;;;;;;;5.53;3.75;;;5.90;67.10;;;;;;5132008;27;20092;-64
2022/01/24 15:04:28;;;;;;;4.82;3.60;;;5.80;65.80;;;;;;5113657;27;20109;-64
2022/01/24 15:06:55;;;;;;;7.10;3.42;;;5.70;64.60;;;;;;5114990;27;20035;-64
2022/01/24 15:09:27;;;;;;;6.60;4.47;;;5.70;64.70;;;;;;5115498;27;20468;-64
2022/01/24 15:11:58;;;;;;;7.68;4.47;;;5.70;65.30;;;;;;5099481;27;20034;-65
2022/01/24 15:17:19;;;;;;;6.53;4.05;;;5.70;65.10;;;;;;5134556;27;20442;-66
2022/01/24 15:25:23;;;;;;;8.13;4.70;;;5.70;65.80;;;;;;5134389;27;20051;-65
2022/01/24 15:27:53;;;;;;;6.20;4.50;;;5.70;66.20;;;;;;5116829;27;20130;-65
2022/01/24 15:30:24;;;;;;;6.22;4.47;;;5.50;66.30;;;;;;5116301;27;20485;-64
2022/01/24 15:32:57;;;;;;;5.68;3.95;;;5.50;65.40;;;;;;5115787;27;20051;-64
2022/01/24 15:35:25;;;;;;;6.25;4.00;;;5.50;65.60;;;;;;5116104;28;20062;-64
2022/01/24 15:37:53;;;;;;;5.63;3.50;;;5.40;65.30;;;;;;5134583;27;20050;-65
2022/01/24 15:40:24;;;;;;;7.07;4.43;;;5.40;65.60;;;;;;5134398;27;20050;-65
2022/01/24 15:45:38;;;;;;;11.40;4.57;;;5.50;66.60;;;;;;5134359;27;20093;-65
2022/01/24 15:48:08;;;;;;;7.17;3.77;;;5.40;66.30;;;;;;5134280;27;20051;-64